Time;durP1;ratioP1;P1;durP2;ratioP2;P2;SDS_P1;SDS_P2;PMS_P1;PMS_P2;Temp;Humidity;BMP_temperature;BMP_pressure;BME280_temperature;BME280_humidity;BME280_pressure;Samples;Min_cycle;Max_cycle;Signal;HPM_P1;HPM_P2
2022/10/03 00:01:11;;;;;;;1.35;0.98;;;;;;;9.94;68.28;98771.59;1700564;82;20991;-71
2022/10/03 00:04:16;;;;;;;1.65;1.07;;;;;;;9.96;68.36;98785.95;1670400;83;21075;-71
2022/10/03 00:06:55;;;;;;;3.45;1.10;;;;;;;9.96;68.03;98770.94;1675211;83;21059;-71
2022/10/03 00:09:46;;;;;;;2.17;1.57;;;;;;;9.96;67.87;98778.03;1673098;83;21052;-75
2022/10/03 00:12:48;;;;;;;1.72;1.20;;;;;;;9.97;67.93;98768.64;1674509;85;21945;-72
2022/10/03 00:15:36;;;;;;;1.77;1.00;;;;;;;9.97;67.86;98773.09;1700231;83;21055;-72
2022/10/03 00:18:34;;;;;;;2.15;1.30;;;;;;;9.96;67.91;98772.27;1658466;85;20972;-72
2022/10/03 00:21:22;;;;;;;3.25;1.20;;;;;;;9.97;67.93;98773.91;1700552;82;21432;-71
2022/10/03 00:24:15;;;;;;;4.05;1.27;;;;;;;9.99;67.94;98778.53;1711229;82;21024;-72
2022/10/03 00:27:00;;;;;;;1.42;1.15;;;;;;;9.96;68.04;98783.31;1681044;82;21964;-71
2022/10/03 00:29:36;;;;;;;2.02;1.30;;;;;;;9.92;68.32;98778.81;1673185;84;21079;-72
2022/10/03 00:32:29;;;;;;;2.30;1.40;;;;;;;9.90;68.34;98783.92;1707332;82;21515;-72
2022/10/03 00:35:23;;;;;;;2.10;1.27;;;;;;;9.88;68.48;98776.66;1689766;83;20980;-71
2022/10/03 00:38:13;;;;;;;1.67;1.40;;;;;;;9.85;68.64;98784.89;1686407;85;21022;-73
2022/10/03 00:41:22;;;;;;;1.40;1.15;;;;;;;9.86;68.74;98796.60;1678233;83;22659;-72
2022/10/03 00:44:31;;;;;;;3.33;1.10;;;;;;;9.84;68.81;98794.59;1682595;83;21105;-72
2022/10/03 00:47:23;;;;;;;1.67;1.20;;;;;;;9.84;68.96;98797.72;1677495;83;21022;-71
2022/10/03 00:50:24;;;;;;;1.60;1.32;;;;;;;9.82;69.00;98793.09;1711295;82;21527;-72
2022/10/03 00:53:23;;;;;;;2.05;1.30;;;;;;;9.80;69.03;98787.98;1691494;82;21051;-71
2022/10/03 00:56:20;;;;;;;2.10;1.22;;;;;;;9.75;69.26;98788.95;1703343;82;21934;-71
2022/10/03 00:59:07;;;;;;;2.62;1.75;;;;;;;9.71;69.47;98792.87;1708373;83;21084;-71
2022/10/03 01:01:45;;;;;;;2.15;1.30;;;;;;;9.67;69.69;98798.13;1681911;83;21007;-71
2022/10/03 01:04:45;;;;;;;1.35;1.20;;;;;;;9.64;69.83;98787.87;1655689;85;20979;-71
2022/10/03 01:07:32;;;;;;;1.22;1.10;;;;;;;9.62;70.01;98788.52;1685034;85;21011;-71
2022/10/03 01:10:21;;;;;;;3.30;1.40;;;;;;;9.57;70.17;98790.31;1710158;82;22478;-71
2022/10/03 01:13:02;;;;;;;1.45;1.32;;;;;;;9.54;70.51;98784.02;1700329;83;21007;-71
2022/10/03 01:15:52;;;;;;;2.10;1.30;;;;;;;9.52;70.60;98780.71;1727896;82;21088;-71
2022/10/03 01:19:10;;;;;;;3.62;1.30;;;;;;;9.48;70.83;98791.73;1679386;83;21009;-73
2022/10/03 01:21:49;;;;;;;2.50;1.30;;;;;;;9.44;70.95;98792.50;1682835;83;21101;-72
2022/10/03 01:24:30;;;;;;;3.00;1.50;;;;;;;9.42;71.18;98787.88;1657283;85;22813;-75
2022/10/03 01:27:14;;;;;;;2.05;1.47;;;;;;;9.39;71.44;98784.25;1657951;84;21040;-71
2022/10/03 01:32:44;;;;;;;4.50;1.42;;;;;;;9.37;71.92;98795.44;1656840;86;20497;-76
2022/10/03 01:35:42;;;;;;;2.08;1.45;;;;;;;9.33;72.24;98799.34;1655046;85;21059;-72
2022/10/03 01:38:29;;;;;;;3.42;1.60;;;;;;;9.30;72.62;98800.48;1653879;85;22617;-70
2022/10/03 01:41:10;;;;;;;2.72;1.62;;;;;;;9.24;72.95;98801.07;1657628;85;21024;-72
2022/10/03 01:43:59;;;;;;;2.85;1.50;;;;;;;9.24;73.35;98800.25;1658462;85;21080;-73
2022/10/03 01:46:41;;;;;;;2.67;1.50;;;;;;;9.24;73.62;98793.17;1654183;85;21740;-73
2022/10/03 01:49:39;;;;;;;1.67;1.47;;;;;;;9.21;73.78;98801.38;1667537;85;21036;-70
2022/10/03 01:52:52;;;;;;;1.85;1.52;;;;;;;9.17;73.88;98792.14;1681457;83;21862;-71
2022/10/03 01:55:37;;;;;;;1.72;1.50;;;;;;;9.15;74.02;98792.27;1660526;85;21103;-71
2022/10/03 01:58:36;;;;;;;1.70;1.30;;;;;;;9.13;74.14;98792.91;1656210;85;20975;-70
2022/10/03 02:01:20;;;;;;;2.25;1.40;;;;;;;9.10;74.28;98794.55;1659050;84;21083;-71
2022/10/03 02:04:03;;;;;;;;;;;;;;;9.09;74.41;98790.26;1643785;86;21069;-71
2022/10/03 02:07:04;;;;;;;3.00;1.43;;;;;;;9.09;74.54;98788.12;1663510;85;21816;-71
2022/10/03 02:10:01;;;;;;;1.72;1.45;;;;;;;9.10;74.63;98796.35;1660842;84;21243;-71
2022/10/03 02:12:33;;;;;;;2.77;1.60;;;;;;;9.10;74.68;98795.03;1668476;84;21445;-71
2022/10/03 02:15:33;;;;;;;2.23;1.50;;;;;;;9.08;74.72;98789.09;1670812;84;21131;-71
2022/10/03 02:18:32;;;;;;;2.30;1.75;;;;;;;9.07;74.89;98786.09;1660399;84;21775;-73
2022/10/03 02:21:14;;;;;;;2.50;1.60;;;;;;;9.07;74.98;98793.54;1665984;82;22876;-73
2022/10/03 02:23:44;;;;;;;2.65;1.70;;;;;;;9.05;75.07;98788.06;1678318;83;21454;-72
2022/10/03 02:26:52;;;;;;;1.82;1.70;;;;;;;9.03;75.17;98790.85;1688010;82;21003;-73
2022/10/03 02:29:42;;;;;;;2.92;1.55;;;;;;;9.05;75.25;98794.16;1704017;82;21051;-71
2022/10/03 02:32:46;;;;;;;2.12;1.55;;;;;;;9.05;75.35;98798.10;1671525;83;21084;-71
2022/10/03 02:35:56;;;;;;;1.60;1.50;;;;;;;9.06;75.42;98795.80;1666963;83;21946;-71
2022/10/03 02:39:20;;;;;;;1.92;1.50;;;;;;;9.07;75.50;98790.91;1677849;83;21007;-75
2022/10/03 02:42:24;;;;;;;2.62;1.80;;;;;;;9.06;75.57;98782.64;1671725;83;21057;-73
2022/10/03 02:45:28;;;;;;;5.97;1.70;;;;;;;9.07;75.72;98788.73;1676127;83;21463;-71
2022/10/03 02:48:16;;;;;;;2.87;1.98;;;;;;;9.08;75.81;98789.09;1700487;82;20958;-71
2022/10/03 02:50:54;;;;;;;4.15;2.08;;;;;;;9.09;75.96;98786.30;1696215;83;22496;-72
2022/10/03 02:53:35;;;;;;;4.22;1.90;;;;;;;9.09;76.01;98790.26;1694775;82;21002;-72
2022/10/03 02:56:30;;;;;;;3.22;1.85;;;;;;;9.09;76.13;98786.30;1707572;82;21021;-76
2022/10/03 02:59:11;;;;;;;2.83;1.82;;;;;;;9.10;76.23;98785.33;1697559;82;21040;-78
2022/10/03 03:02:12;;;;;;;3.50;1.85;;;;;;;9.10;76.29;98788.45;1709825;82;21455;-71
2022/10/03 03:05:09;;;;;;;2.77;2.02;;;;;;;9.09;76.41;98790.75;1659352;82;21872;-72
2022/10/03 03:08:19;;;;;;;2.20;1.95;;;;;;;9.08;76.57;98787.29;1685598;83;21031;-72
2022/10/03 03:11:36;;;;;;;2.10;1.67;;;;;;;9.08;76.67;98789.92;1670844;83;21076;-72
2022/10/03 03:14:41;;;;;;;2.83;2.08;;;;;;;9.06;76.88;98790.54;1663140;84;21011;-72
2022/10/03 03:17:39;;;;;;;4.05;1.87;;;;;;;9.11;77.06;98790.92;1686715;83;27543;-72
2022/10/03 03:20:26;;;;;;;3.00;2.17;;;;;;;9.13;77.21;98790.28;1662113;84;21855;-72
2022/10/03 03:23:11;;;;;;;2.25;1.60;;;;;;;9.18;77.39;98786.72;1682228;83;21047;-71
2022/10/03 03:25:49;;;;;;;4.60;2.05;;;;;;;9.24;77.44;98785.76;1706657;82;21001;-71
2022/10/03 03:28:34;;;;;;;3.22;2.52;;;;;;;9.24;77.44;98780.48;1672119;83;21010;-71
2022/10/03 03:31:13;;;;;;;4.05;2.67;;;;;;;9.23;77.49;98780.16;1684517;84;21112;-71
2022/10/03 03:33:51;;;;;;;2.47;2.10;;;;;;;9.22;77.61;98779.82;1668060;85;21841;-71
2022/10/03 03:36:40;;;;;;;2.83;2.30;;;;;;;9.21;77.70;98770.27;1684222;83;21295;-71
2022/10/03 03:39:35;;;;;;;2.95;2.05;;;;;;;9.22;77.87;98776.70;1684135;83;21129;-71
2022/10/03 03:42:34;;;;;;;5.72;2.27;;;;;;;9.24;77.96;98773.91;1678653;84;21029;-70
2022/10/03 03:45:33;;;;;;;3.17;2.83;;;;;;;9.24;78.02;98778.68;1708872;82;21024;-71
2022/10/03 03:48:39;;;;;;;3.65;2.15;;;;;;;9.24;78.26;98775.22;1681261;85;21867;-70
2022/10/03 03:51:32;;;;;;;2.37;1.80;;;;;;;9.27;78.44;98772.30;1688611;84;21518;-71
2022/10/03 03:54:28;;;;;;;3.35;2.30;;;;;;;9.30;78.55;98776.77;1657715;83;21040;-71
2022/10/03 03:57:06;;;;;;;3.62;2.10;;;;;;;9.30;78.57;98777.25;1680306;83;20986;-75
2022/10/03 03:59:47;;;;;;;2.67;2.20;;;;;;;9.28;78.73;98773.46;1682170;83;21096;-71
2022/10/03 04:02:45;;;;;;;2.70;2.35;;;;;;;9.31;78.83;98770.52;1686933;83;21847;-71
2022/10/03 04:05:20;;;;;;;2.45;1.95;;;;;;;9.34;78.98;98773.32;1678899;83;21426;-70
2022/10/03 04:08:25;;;;;;;2.47;2.02;;;;;;;9.37;79.08;98769.91;1682490;83;21100;-71
2022/10/03 04:11:26;;;;;;;2.60;1.98;;;;;;;9.39;79.17;98771.90;1678093;82;21055;-76
2022/10/03 04:14:25;;;;;;;2.55;1.90;;;;;;;9.42;79.29;98776.84;1700400;82;21008;-72
2022/10/03 04:21:19;;;;;;;2.17;1.90;;;;;;;9.41;79.86;98785.73;1581674;89;21062;-71
2022/10/03 04:23:57;;;;;;;3.00;1.90;;;;;;;9.48;79.99;98787.77;1683188;84;21051;-70
2022/10/03 04:26:36;;;;;;;1.65;1.50;;;;;;;9.48;79.98;98767.52;1664231;85;21043;-71
2022/10/03 04:29:45;;;;;;;2.30;1.60;;;;;;;9.50;80.04;98761.59;1667328;85;20976;-72
2022/10/03 04:32:31;;;;;;;2.67;1.80;;;;;;;9.52;80.14;98768.02;1670670;85;21887;-72
2022/10/03 04:35:21;;;;;;;3.35;1.90;;;;;;;9.52;80.19;98770.17;1665867;85;21055;-71
2022/10/03 04:38:16;;;;;;;2.55;1.40;;;;;;;9.54;80.24;98770.83;1687498;83;21058;-71
2022/10/03 04:41:11;;;;;;;2.40;1.30;;;;;;;9.54;80.33;98780.55;1673820;84;21062;-71
2022/10/03 04:43:57;;;;;;;1.75;1.40;;;;;;;9.56;80.41;98776.80;1685872;84;21598;-72
2022/10/03 04:46:53;;;;;;;3.08;1.90;;;;;;;9.61;80.56;98778.47;1669774;84;21450;-73
2022/10/03 04:49:40;;;;;;;2.75;2.22;;;;;;;9.65;80.65;98771.92;1667595;85;21051;-71
2022/10/03 04:52:20;;;;;;;4.30;2.70;;;;;;;9.67;80.67;98783.13;1665481;84;21061;-73
2022/10/03 04:55:27;;;;;;;3.40;2.00;;;;;;;9.68;80.74;98779.52;1669811;85;21172;-74
2022/10/03 04:58:20;;;;;;;4.92;1.90;;;;;;;9.71;80.82;98782.32;1677912;85;21071;-73
2022/10/03 05:00:55;;;;;;;2.58;1.92;;;;;;;9.72;80.89;98783.48;1666955;84;22886;-72
2022/10/03 05:04:11;;;;;;;2.17;1.60;;;;;;;9.75;81.00;98789.78;1670714;85;21311;-71
2022/10/03 05:07:02;;;;;;;3.22;1.90;;;;;;;9.78;81.06;98790.45;1667831;85;21030;-75
2022/10/03 05:09:46;;;;;;;2.08;1.70;;;;;;;9.78;81.11;98793.08;1690546;83;21055;-72
2022/10/03 05:12:35;;;;;;;2.62;1.95;;;;;;;9.77;81.27;98788.30;1667664;84;21056;-72
2022/10/03 05:15:26;;;;;;;3.77;2.30;;;;;;;9.80;81.39;98792.43;1656284;85;21962;-70
2022/10/03 05:18:06;;;;;;;3.37;2.40;;;;;;;9.80;81.49;98793.75;1665366;84;21043;-70
2022/10/03 05:20:45;;;;;;;3.37;2.25;;;;;;;9.81;81.61;98791.45;1665778;84;21044;-71
2022/10/03 05:24:01;;;;;;;2.98;2.37;;;;;;;9.85;81.77;98802.04;1661551;85;21052;-71
2022/10/03 05:26:58;;;;;;;3.95;2.22;;;;;;;9.88;81.88;98797.27;1665487;84;21042;-71
2022/10/03 05:29:52;;;;;;;3.58;2.20;;;;;;;9.94;82.03;98788.74;1686905;85;21975;-73
2022/10/03 05:32:42;;;;;;;2.60;2.00;;;;;;;9.98;82.07;98798.48;1677577;83;21152;-73
2022/10/03 05:35:44;;;;;;;3.00;2.12;;;;;;;10.00;82.20;98793.38;1674950;83;21128;-70
2022/10/03 05:39:02;;;;;;;3.85;1.80;;;;;;;10.02;82.25;98794.03;1673416;83;21038;-71
2022/10/03 05:41:31;;;;;;;4.00;1.95;;;;;;;10.10;82.36;98802.98;1685670;83;21597;-71
2022/10/03 05:44:15;;;;;;;3.92;2.30;;;;;;;10.16;82.51;98800.55;1683456;83;22704;-70
2022/10/03 05:47:00;;;;;;;2.55;1.82;;;;;;;10.22;82.51;98803.89;1687584;84;21020;-70
2022/10/03 05:49:46;;;;;;;3.50;2.10;;;;;;;10.26;82.53;98797.33;1693596;84;21032;-70
2022/10/03 05:52:40;;;;;;;4.55;2.60;;;;;;;10.32;82.52;98799.32;1685349;84;21082;-70
2022/10/03 05:55:27;;;;;;;9.28;2.85;;;;;;;10.37;82.50;98805.95;1688198;83;21237;-71
2022/10/03 05:58:26;;;;;;;10.13;2.98;;;;;;;10.41;82.54;98808.59;1671826;84;21916;-71
2022/10/03 06:01:31;;;;;;;4.65;2.90;;;;;;;10.47;82.50;98801.38;1687732;84;21028;-72
2022/10/03 06:04:22;;;;;;;6.42;2.98;;;;;;;10.53;82.51;98796.30;1685702;84;21088;-70
2022/10/03 06:07:22;;;;;;;7.62;3.30;;;;;;;10.62;82.52;98795.83;1685047;84;21018;-74
2022/10/03 06:10:15;;;;;;;6.10;2.67;;;;;;;10.69;82.25;98807.38;1687542;84;21025;-71
2022/10/03 06:13:18;;;;;;;7.00;2.80;;;;;;;10.82;81.85;98813.05;1691533;83;21961;-72
2022/10/03 06:16:00;;;;;;;6.08;2.58;;;;;;;10.94;81.42;98811.41;1688018;84;21566;-71
2022/10/03 06:18:49;;;;;;;6.92;2.72;;;;;;;11.03;81.06;98816.55;1669111;85;21331;-72
2022/10/03 06:22:01;;;;;;;4.92;2.10;;;;;;;11.11;80.80;98817.89;1691002;84;21026;-73
2022/10/03 06:24:41;;;;;;;6.72;2.40;;;;;;;11.21;80.24;98833.59;1694020;84;21041;-70
2022/10/03 06:27:47;;;;;;;4.97;2.37;;;;;;;11.31;79.73;98830.79;1695941;84;21831;-70
2022/10/03 06:30:58;;;;;;;4.85;2.10;;;;;;;11.39;79.66;98827.66;1694870;84;21030;-71
2022/10/03 06:34:16;;;;;;;5.70;2.20;;;;;;;11.47;79.24;98840.86;1706443;83;21038;-73
2022/10/03 06:37:09;;;;;;;5.45;2.52;;;;;;;11.55;78.77;98843.18;1680833;85;21511;-70
2022/10/03 06:40:11;;;;;;;4.47;1.95;;;;;;;11.62;77.87;98837.56;1716027;83;21106;-70
2022/10/03 06:43:15;;;;;;;5.58;2.35;;;;;;;11.68;77.58;98844.35;1702278;83;21898;-70
2022/10/03 06:46:07;;;;;;;4.95;1.98;;;;;;;11.75;77.12;98847.96;1678669;83;21439;-70
2022/10/03 06:49:11;;;;;;;3.70;2.00;;;;;;;11.82;76.54;98847.34;1689752;82;21105;-69
2022/10/03 06:52:19;;;;;;;4.72;2.10;;;;;;;11.88;75.96;98851.48;1712601;83;21079;-71
2022/10/03 06:55:04;;;;;;;6.62;2.08;;;;;;;11.96;75.67;98868.64;1694615;83;21074;-73
2022/10/03 06:57:57;;;;;;;4.80;1.98;;;;;;;12.01;74.94;98871.63;1694064;83;23042;-72
2022/10/03 07:00:53;;;;;;;5.35;1.67;;;;;;;12.04;74.06;98865.98;1706815;82;21043;-70
2022/10/03 07:03:51;;;;;;;3.62;1.87;;;;;;;12.10;73.81;98868.97;1710247;82;21051;-72
2022/10/03 07:07:11;;;;;;;4.72;2.08;;;;;;;12.14;73.36;98871.09;1709750;82;21039;-73
2022/10/03 07:10:11;;;;;;;4.87;1.70;;;;;;;12.19;73.14;98867.96;1708806;83;21657;-72
2022/10/03 07:13:05;;;;;;;3.60;1.60;;;;;;;12.27;72.67;98870.59;1687041;84;21951;-70
2022/10/03 07:15:54;;;;;;;4.67;1.72;;;;;;;12.39;72.17;98877.67;1716083;83;20981;-71
2022/10/03 07:18:36;;;;;;;3.67;1.25;;;;;;;12.49;71.48;98871.69;1728893;82;20968;-71
2022/10/03 07:21:27;;;;;;;4.87;1.50;;;;;;;12.56;70.03;98879.28;1730325;82;21051;-72
2022/10/03 07:24:28;;;;;;;6.10;1.50;;;;;;;12.59;69.13;98870.48;1708639;83;20949;-71
2022/10/03 07:27:18;;;;;;;4.17;1.67;;;;;;;12.60;68.29;98870.81;1688418;84;22453;-69
2022/10/03 07:30:16;;;;;;;2.65;1.30;;;;;;;12.57;67.52;98871.16;1675981;83;20967;-69
2022/10/03 07:33:05;;;;;;;4.70;1.40;;;;;;;12.55;67.08;98878.95;1679162;83;21177;-71
2022/10/03 07:39:37;;;;;;;2.65;1.35;;;;;;;12.60;66.83;98881.41;1701872;83;21375;-69
2022/10/03 07:42:45;;;;;;;3.37;1.50;;;;;;;12.81;66.56;98874.19;1668301;83;21840;-70
2022/10/03 07:45:44;;;;;;;4.22;1.42;;;;;;;12.90;65.39;98878.45;1626394;84;21094;-70
2022/10/03 07:48:28;;;;;;;3.37;1.27;;;;;;;12.91;64.25;98891.20;1686347;85;21407;-74
2022/10/03 07:51:22;;;;;;;2.52;1.10;;;;;;;12.92;64.00;98880.11;1679895;83;20977;-71
2022/10/03 07:54:30;;;;;;;2.20;1.00;;;;;;;12.89;63.66;98895.86;1678686;85;21115;-76
2022/10/03 07:57:21;;;;;;;3.55;1.20;;;;;;;12.86;63.79;98902.84;1674790;84;39772;-73
2022/10/03 07:59:54;;;;;;;3.08;1.00;;;;;;;12.79;63.48;98900.05;1673272;85;21083;-69
2022/10/03 08:03:03;;;;;;;7.67;1.37;;;;;;;12.78;63.74;98902.87;1689988;84;21143;-71
2022/10/03 08:05:45;;;;;;;4.90;1.32;;;;;;;12.80;64.29;98899.55;1639387;86;21030;-71
2022/10/03 08:08:53;;;;;;;4.45;1.30;;;;;;;12.86;64.71;98909.47;1693748;82;21085;-72
2022/10/03 08:11:43;;;;;;;7.42;1.62;;;;;;;12.94;64.92;98907.28;1682450;84;22265;-73
2022/10/03 08:14:20;;;;;;;5.67;1.67;;;;;;;13.10;65.16;98904.53;1709462;82;21041;-70
2022/10/03 08:17:24;;;;;;;2.75;1.40;;;;;;;13.27;65.24;98903.98;1661403;85;21098;-71
2022/10/03 08:20:20;;;;;;;13.32;2.17;;;;;;;13.36;64.64;98904.27;1669702;85;21000;-71
2022/10/03 08:23:35;;;;;;;4.45;1.30;;;;;;;13.47;64.65;98909.16;1669407;84;21605;-71
2022/10/03 08:26:38;;;;;;;4.20;1.42;;;;;;;13.58;64.14;98918.03;1664365;84;22818;-69
2022/10/03 08:29:19;;;;;;;3.67;1.40;;;;;;;13.58;63.65;98908.75;1698665;84;20944;-72
2022/10/03 08:32:39;;;;;;;5.35;1.52;;;;;;;13.54;63.70;98919.40;1698529;83;21864;-71
2022/10/03 08:35:43;;;;;;;3.77;1.50;;;;;;;13.50;63.36;98921.23;1688187;84;21198;-70
2022/10/03 08:38:21;;;;;;;4.00;1.50;;;;;;;13.50;63.76;98922.56;1672714;84;21521;-68
2022/10/03 08:41:14;;;;;;;3.47;1.12;;;;;;;13.54;63.55;98910.11;1704486;83;22595;-69
2022/10/03 08:44:06;;;;;;;3.80;1.30;;;;;;;13.63;63.52;98918.84;1633125;86;21103;-70
2022/10/03 08:47:01;;;;;;;3.75;1.30;;;;;;;13.79;63.02;98937.78;1656239;84;21339;-70
2022/10/03 08:50:09;;;;;;;3.58;1.50;;;;;;;13.95;61.83;98935.01;1696908;83;21530;-68
2022/10/03 08:53:19;;;;;;;5.45;1.40;;;;;;;14.02;60.79;98926.16;1689489;83;21069;-72
2022/10/03 08:56:14;;;;;;;4.50;1.30;;;;;;;14.16;59.47;98929.02;1702583;83;21844;-73
2022/10/03 08:59:16;;;;;;;4.60;1.40;;;;;;;14.25;59.16;98923.95;1706353;83;21537;-69
2022/10/03 09:02:08;;;;;;;3.20;1.10;;;;;;;14.37;58.44;98947.73;1677668;83;20995;-71
2022/10/03 09:05:03;;;;;;;5.30;1.20;;;;;;;14.52;57.23;98930.53;1689884;83;21022;-71
2022/10/03 09:08:27;;;;;;;2.85;1.17;;;;;;;14.63;56.81;98910.65;1704985;82;21052;-72
2022/10/03 09:11:04;;;;;;;3.25;1.00;;;;;;;14.62;56.25;98916.47;1682995;82;21801;-72
2022/10/03 09:13:59;;;;;;;3.15;1.15;;;;;;;14.60;56.64;98918.48;1688460;83;21601;-70
2022/10/03 09:16:52;;;;;;;2.42;1.05;;;;;;;14.67;57.22;98919.89;1701137;83;21045;-72
2022/10/03 09:19:40;;;;;;;2.05;0.98;;;;;;;14.77;56.31;98918.63;1701054;84;21046;-75
2022/10/03 09:22:48;;;;;;;2.77;1.00;;;;;;;14.84;56.75;98919.52;1691986;84;20954;-72
2022/10/03 09:25:39;;;;;;;3.00;1.00;;;;;;;14.90;56.10;98927.28;1666251;84;22317;-70
2022/10/03 09:28:52;;;;;;;4.70;0.90;;;;;;;14.95;55.11;98913.41;1667100;84;21091;-71
2022/10/03 09:31:58;;;;;;;3.62;1.10;;;;;;;14.98;54.94;98914.39;1665476;85;21031;-74
2022/10/03 09:34:56;;;;;;;2.90;1.00;;;;;;;14.99;54.60;98944.78;1628993;86;21120;-74
2022/10/03 09:37:51;;;;;;;3.02;1.00;;;;;;;14.98;54.28;98924.52;1630621;87;21044;-75
2022/10/03 09:40:38;;;;;;;3.15;1.10;;;;;;;14.96;54.52;98934.52;1671864;85;21825;-72
2022/10/03 09:43:34;;;;;;;1.45;0.93;;;;;;;14.93;54.04;98944.18;1660440;84;20956;-78
2022/10/03 09:46:24;;;;;;;3.60;1.22;;;;;;;14.94;54.82;98947.66;1649412;84;21076;-73
2022/10/03 09:49:02;;;;;;;3.98;1.10;;;;;;;14.93;54.97;98942.84;1675253;85;21031;-71
2022/10/03 09:51:57;;;;;;;2.80;1.20;;;;;;;14.94;55.46;98959.63;1671686;84;21007;-70
2022/10/03 09:54:53;;;;;;;4.25;1.10;;;;;;;15.05;55.71;98944.02;1675463;84;22517;-73
2022/10/03 09:57:54;;;;;;;4.53;1.20;;;;;;;15.11;54.58;98932.66;1686904;85;21466;-71
2022/10/03 10:00:54;;;;;;;2.27;1.25;;;;;;;15.03;55.32;98936.74;1685191;84;20992;-72
2022/10/03 10:03:48;;;;;;;2.50;1.17;;;;;;;14.94;55.36;98951.14;1669113;85;21136;-70
2022/10/03 10:06:41;;;;;;;3.12;1.32;;;;;;;14.85;55.53;98957.05;1669688;84;20954;-70
2022/10/03 10:09:22;;;;;;;5.17;1.27;;;;;;;14.78;55.26;98958.00;1686032;85;22534;-69
2022/10/03 10:12:26;;;;;;;2.42;1.20;;;;;;;14.70;54.97;98958.91;1685874;84;21011;-72
2022/10/03 10:15:33;;;;;;;2.65;1.30;;;;;;;14.64;55.15;98956.14;1687551;83;21010;-70
2022/10/03 10:18:05;;;;;;;3.17;1.30;;;;;;;14.59;55.74;98955.38;1687127;85;21055;-68
2022/10/03 10:21:00;;;;;;;5.40;1.65;;;;;;;14.55;55.69;98952.73;1687200;84;21095;-72
2022/10/03 10:23:54;;;;;;;3.05;1.30;;;;;;;14.49;56.01;98957.47;1685291;85;21835;-71
2022/10/03 10:26:40;;;;;;;;;;;;;;;14.35;56.58;98961.70;1671237;84;21431;-72
2022/10/03 10:29:31;;;;;;;2.25;1.20;;;;;;;14.16;57.74;98971.00;1646335;85;20136;-71
2022/10/03 10:32:09;;;;;;;3.05;1.40;;;;;;;13.94;59.11;98980.64;1603468;89;21148;-70
2022/10/03 10:35:10;;;;;;;3.52;1.60;;;;;;;13.75;60.55;98978.45;1610255;89;21522;-70
2022/10/03 10:38:06;;;;;;;2.85;1.40;;;;;;;13.66;62.17;98977.67;1681451;83;21896;-70
2022/10/03 10:41:14;;;;;;;4.53;1.20;;;;;;;13.76;62.77;98985.41;1708896;83;21059;-72
2022/10/03 10:44:20;;;;;;;1.10;0.88;;;;;;;13.92;61.13;98976.52;1709343;83;21443;-70
2022/10/03 10:47:26;;;;;;;2.77;1.07;;;;;;;14.15;61.34;98976.49;1675028;83;20969;-70
2022/10/03 10:50:34;;;;;;;1.82;0.90;;;;;;;14.40;59.03;99006.34;1657167;85;20995;-70
2022/10/03 10:54:00;;;;;;;2.87;0.90;;;;;;;14.44;58.64;98970.42;1683814;85;21926;-70
2022/10/03 10:57:13;;;;;;;2.83;1.00;;;;;;;14.66;58.84;98966.08;1683832;84;20995;-70
2022/10/03 11:00:17;;;;;;;2.92;1.00;;;;;;;15.03;57.82;98973.14;1682471;84;21010;-71
2022/10/03 11:03:04;;;;;;;2.92;0.95;;;;;;;15.29;56.73;98961.52;1683359;83;21684;-72
2022/10/03 11:06:03;;;;;;;2.95;1.37;;;;;;;15.50;55.50;98962.57;1683910;85;20955;-71
2022/10/03 11:08:58;;;;;;;2.10;0.93;;;;;;;15.73;55.79;98973.93;1683864;84;22245;-70
2022/10/03 11:11:45;;;;;;;3.47;1.25;;;;;;;15.99;54.07;98958.70;1684282;84;21414;-71
2022/10/03 11:14:58;;;;;;;2.85;0.90;;;;;;;16.16;52.34;98967.26;1683516;84;21046;-69
2022/10/03 11:18:04;;;;;;;3.83;1.55;;;;;;;16.26;52.19;98966.42;1649196;87;21100;-73
2022/10/03 11:21:08;;;;;;;2.55;0.80;;;;;;;16.30;52.11;98961.83;1664587;84;21597;-70
2022/10/03 11:24:04;;;;;;;1.77;0.82;;;;;;;16.52;51.49;98959.14;1684066;84;22425;-71
2022/10/03 11:27:23;;;;;;;3.33;1.22;;;;;;;16.66;51.39;98950.71;1686926;85;21014;-71
2022/10/03 11:30:21;;;;;;;2.77;1.20;;;;;;;16.66;51.07;98953.38;1716511;83;20996;-70
2022/10/03 11:33:30;;;;;;;3.25;1.90;;;;;;;16.53;51.63;98958.13;1714519;83;21023;-73
2022/10/03 11:36:51;;;;;;;5.55;2.45;;;;;;;16.42;51.83;98956.81;1715621;83;21008;-72
2022/10/03 11:39:37;;;;;;;2.87;1.62;;;;;;;16.35;52.10;98959.94;1715607;83;21845;-71
2022/10/03 11:42:45;;;;;;;3.65;1.60;;;;;;;16.16;52.84;98954.76;1698276;83;20944;-70
2022/10/03 11:45:32;;;;;;;3.33;1.40;;;;;;;16.00;53.73;98950.52;1716307;83;21058;-71
2022/10/03 11:48:27;;;;;;;2.72;1.77;;;;;;;15.81;54.94;98941.83;1715044;82;21078;-71
2022/10/03 11:50:56;;;;;;;2.95;1.30;;;;;;;15.76;56.06;98932.78;1690382;82;20969;-71
2022/10/03 11:53:34;;;;;;;3.00;1.90;;;;;;;15.88;56.24;98932.08;1687147;83;21861;-71
2022/10/03 11:56:19;;;;;;;4.20;1.42;;;;;;;15.97;55.62;98936.77;1652595;86;21547;-71
2022/10/03 11:59:17;;;;;;;2.70;1.20;;;;;;;15.91;56.08;98929.53;1663475;86;20986;-71
2022/10/03 12:02:24;;;;;;;1.85;1.25;;;;;;;15.81;55.94;98926.37;1654254;86;21480;-71
2022/10/03 12:05:02;;;;;;;1.32;0.60;;;;;;;15.63;56.06;98978.70;1687848;82;21015;-70
2022/10/03 12:11:12;;;;;;;1.82;0.47;;;;;;;14.47;59.17;99001.97;1674056;84;21082;-70
2022/10/03 12:14:08;;;;;;;3.17;0.60;;;;;;;13.75;60.87;98998.35;1694687;84;21536;-71
2022/10/03 12:17:11;;;;;;;2.37;0.70;;;;;;;13.38;62.26;99003.03;1696588;84;21545;-71
2022/10/03 12:20:06;;;;;;;1.00;0.60;;;;;;;13.13;63.97;98998.31;1696887;84;21515;-70
2022/10/03 12:22:53;;;;;;;1.57;1.00;;;;;;;12.98;65.25;98990.73;1690150;84;21933;-70
2022/10/03 12:25:26;;;;;;;2.52;0.78;;;;;;;12.89;66.02;98990.76;1624339;87;21084;-70
2022/10/03 12:28:17;;;;;;;2.55;1.00;;;;;;;12.84;66.72;98996.26;1684376;83;21020;-70
2022/10/03 12:31:07;;;;;;;3.65;1.12;;;;;;;12.78;67.27;99007.52;1687887;84;21073;-71
2022/10/03 12:34:16;;;;;;;3.95;1.60;;;;;;;12.69;67.63;99005.88;1715158;83;21054;-72
2022/10/03 12:37:07;;;;;;;2.58;1.60;;;;;;;12.64;68.23;98999.75;1714938;83;21853;-72
2022/10/03 12:39:49;;;;;;;4.95;1.85;;;;;;;12.71;69.37;98997.27;1715017;83;21011;-71
2022/10/03 12:42:47;;;;;;;4.35;1.57;;;;;;;12.81;69.74;99003.20;1715337;83;21071;-71
2022/10/03 12:45:39;;;;;;;4.00;1.12;;;;;;;12.88;69.98;98998.88;1706245;82;21126;-70
2022/10/03 12:48:30;;;;;;;2.77;1.00;;;;;;;12.89;70.15;98996.56;1659876;86;21631;-71
2022/10/03 12:51:15;;;;;;;3.10;1.07;;;;;;;12.91;70.39;98999.86;1686164;85;21961;-71
2022/10/03 12:54:05;;;;;;;2.47;1.30;;;;;;;12.95;70.55;99005.66;1659365;86;20935;-71
2022/10/03 12:56:43;;;;;;;4.35;1.40;;;;;;;12.97;70.57;99007.14;1685623;85;21055;-71
2022/10/03 12:59:41;;;;;;;1.62;1.20;;;;;;;13.03;70.93;99002.49;1659763;85;21065;-71
2022/10/03 13:02:34;;;;;;;2.77;1.60;;;;;;;13.12;71.20;99009.42;1693441;83;22132;-71
2022/10/03 13:05:29;;;;;;;4.03;1.60;;;;;;;13.20;70.86;99007.75;1709558;83;21830;-72
2022/10/03 13:08:18;;;;;;;2.05;1.40;;;;;;;13.17;70.76;98999.61;1700978;82;21026;-71
2022/10/03 13:10:48;;;;;;;3.20;1.50;;;;;;;13.13;70.71;99000.97;1688374;84;21051;-71
2022/10/03 13:14:01;;;;;;;2.22;1.30;;;;;;;13.11;70.73;99000.28;1676797;85;21077;-73
2022/10/03 13:16:32;;;;;;;3.67;2.10;;;;;;;13.11;70.77;99001.61;1551254;90;21097;-71
2022/10/03 13:19:15;;;;;;;2.40;1.20;;;;;;;13.07;70.67;98997.17;1655923;84;22548;-71
2022/10/03 13:21:50;;;;;;;3.02;1.05;;;;;;;13.06;70.81;99003.47;1714202;83;21051;-73
2022/10/03 13:24:59;;;;;;;3.33;1.22;;;;;;;13.05;71.08;99018.22;1724930;82;21443;-72
2022/10/03 13:27:43;;;;;;;3.45;1.37;;;;;;;13.06;71.22;99018.05;1672717;84;21147;-71
2022/10/03 13:30:23;;;;;;;4.15;1.90;;;;;;;13.08;71.40;99020.52;1696939;82;21080;-72
2022/10/03 13:33:05;;;;;;;3.98;1.85;;;;;;;13.08;71.59;99021.34;1683760;84;21903;-71
2022/10/03 13:35:58;;;;;;;3.42;1.70;;;;;;;13.06;71.87;99026.50;1644197;85;21193;-70
2022/10/03 13:39:01;;;;;;;3.02;1.77;;;;;;;13.09;72.16;99016.37;1658068;85;21564;-71
2022/10/03 13:41:59;;;;;;;2.17;1.20;;;;;;;13.39;73.80;99029.38;1667044;83;21090;-69
2022/10/03 13:44:37;;;;;;;2.65;1.20;;;;;;;13.90;73.78;99017.02;1684390;83;21089;-71
2022/10/03 13:47:43;;;;;;;3.92;1.22;;;;;;;14.31;72.59;99009.06;1684704;83;22595;-71
2022/10/03 13:50:42;;;;;;;2.70;1.30;;;;;;;14.60;70.87;99004.85;1687071;83;21022;-70
2022/10/03 13:53:20;;;;;;;1.90;1.05;;;;;;;14.76;68.22;99012.64;1682306;83;21054;-72
2022/10/03 13:55:52;;;;;;;2.45;1.12;;;;;;;14.82;67.01;99021.23;1671193;83;21042;-72